Horacio Farfan

Chefscout - Deportivo Municipal
4 Dez 2028
Montag
Verarbeitung

Persönlichkeit

Anpassungsfähigkeit (17) Ehrgeiz (12) Kontroverse (20) Loyalität (18) Druck (14) Professionalität (15) Fairness (3) Temperament (16)

Profil

Trainerstil Demokratisch
Lizenz Kontinentale A
Entschlossenheit 5
Menschenführung 6
Motivation 5
Disziplin 4
Arbeitszufriedenheit
100%
Ermüdung
0%
Rolle Chefscout
Gehalt 33.1K p/W
Vertrag 14.03.2029

Leistung

Verhalten Gut
Trainingseffektivität
38%
Spielerentwicklung
50%
Verletzungsprävention
30%
Taktische Umsetzung
45%

Letzte Ereignisse

Nahm an einer Scouting-Besprechung teil 14T her
Spieler begutachtet 21T her
Nahm an einer Scouting-Besprechung teil 21T her
Spieler begutachtet 21T her
Spieler begutachtet 21T her
Spieler begutachtet 28T her
Spieler begutachtet 28T her
Spieler begutachtet 28T her

Aktuell beobachtet

215
Spieler Verein Status Fähigkeit Vertrauen Beobachtet Zuletzt beobachtet Letzte Stimme
Bryan Canela Juan Aurich Bericht bereit 85 / 78 65% 1 03.12.2028 -
Iñaki Larthirigoyen San Telmo Aktiv 117 / 119 40% 5 10.11.2028 -
Tomás Pozzo Godoy Cruz Aktiv 126 / 126 40% 3 10.11.2028 -
Antonio Galeano Remo Stars Aktiv 122 / 134 40% 3 10.11.2028 -
Emiliano Gómez Boston River Aktiv 131 / 121 40% 7 07.11.2028 -
Leandro Suhr Boston River Aktiv 123 / 117 40% 2 07.11.2028 -
Lautaro Disanto Defensores Unidos Aktiv 110 / 105 40% 2 07.11.2028 -
Federico Álvarez Dinamo Tbilisi Aktiv 110 / 103 40% 4 06.11.2028 -
Manuel Duarte Barracas Central Aktiv 123 / 115 40% 2 06.11.2028 -
Agustín Colazo Unión de Santa Fe Aktiv 128 / 126 40% 1 06.11.2028 -
John Córdoba Millonarios Aktiv 116 / 123 40% 3 05.11.2028 -
Matías Sosa Arsenal Aktiv 106 / 110 40% 1 05.11.2028 -
Luciano Cosentino Wanderers Aktiv 121 / 130 40% 5 04.11.2028 -
Matías Machado Racing Aktiv 120 / 109 40% 4 04.11.2028 -
Diego Gaitán Maipú Aktiv 112 / 118 40% 3 02.11.2028 -
Facundo Lencioni Gimnasia y Esgrima Aktiv 128 / 117 40% 1 02.11.2028 -
Rafael Moreno Atletico Venezuela Aktiv 108 / 114 40% 4 31.10.2028 -
Yeferson Rodallega Envigado Aktiv 119 / 117 40% 1 31.10.2028 -
Tomás Escalante River Plate Aktiv 126 / 118 40% 1 31.10.2028 -
Alex Luna Instituto Aktiv 140 / 137 40% 2 29.10.2028 -
Santiago Sala Güemes Aktiv 110 / 112 40% 1 29.10.2028 -
Ramón González Almirante Brown Aktiv 115 / 115 40% 1 29.10.2028 -
Johan Campaña Patriotas Aktiv 115 / 116 40% 2 28.10.2028 -
Jefry Zapata Aldosivi Aktiv 117 / 114 40% 1 28.10.2028 -
Miguel Ceccotti Güemes Aktiv 115 / 101 40% 1 28.10.2028 -
Gastón Moreyra Almirante Brown Aktiv 122 / 111 40% 3 27.10.2028 -
Enzo González Defensores Aktiv 113 / 105 40% 5 27.10.2028 -
Pablo Cardona Cortulua Aktiv 120 / 122 40% 2 27.10.2028 -
Enzo Silcan Almagro Aktiv 119 / 113 40% 1 26.10.2028 -
Ramiro Hernandes Belgrano Aktiv 120 / 120 40% 1 26.10.2028 -
Pedro Souto Temperley Aktiv 112 / 109 40% 2 25.10.2028 -
Santiago Gutiérrez Alvarado Aktiv 113 / 103 40% 2 25.10.2028 -
Alejo Dramisino Atlanta Aktiv 117 / 126 40% 4 24.10.2028 -
Yeison Suárez Deportivo Pereira Aktiv 116 / 119 40% 2 22.10.2028 -
Santiago Moyano Central Córdoba SdE Aktiv 115 / 110 40% 2 22.10.2028 -
Vicente Poggi Godoy Cruz Aktiv 127 / 129 40% 1 22.10.2028 -
Brayan Palmezano Deportivo Tachira Aktiv 103 / 102 40% 4 19.10.2028 -
Tobías Leiva Estudiantes Aktiv 116 / 117 40% 1 19.10.2028 -
Federico Versaci Talleres Aktiv 121 / 109 40% 1 19.10.2028 -
Marco Miori Alvarado Aktiv 113 / 116 40% 2 18.10.2028 -
Mauro Valiente Estudiantes Aktiv 126 / 115 40% 4 17.10.2028 -
Rodrigo González Mitre Aktiv 124 / 112 40% 1 17.10.2028 -
Francisco González Metilli Belgrano Aktiv 130 / 121 40% 4 15.10.2028 -
Patricio Moyano Defensores Aktiv 126 / 115 40% 5 15.10.2028 -
Agustín Morales Estudiantes Aktiv 118 / 115 40% 3 15.10.2028 -
Alexander Díaz Deportivo Riestra Aktiv 122 / 118 40% 1 14.10.2028 -
Daniel Barrea Godoy Cruz Aktiv 122 / 121 40% 4 13.10.2028 -
Martín Campos Ferro Carril Oeste Aktiv 118 / 118 40% 2 13.10.2028 -
Franco Zicarelli Colegiales Aktiv 103 / 111 40% 1 13.10.2028 -
Gianluca Pugliese Güemes Aktiv 120 / 105 40% 2 09.10.2028 -
Cesar Rubio Envigado Aktiv 121 / 115 40% 1 09.10.2028 -
Mauricio Márquez Caracas Aktiv 115 / 107 40% 3 07.10.2028 -
Matías Viguet Maipú Aktiv 114 / 118 40% 4 07.10.2028 -
Luca Langoni Columbus Crew Aktiv 125 / 134 40% 1 06.10.2028 -
Julián Vera Maipú Aktiv 111 / 111 40% 1 06.10.2028 -
Tomás Ferreyra Defensores Unidos Aktiv 108 / 111 40% 2 05.10.2028 -
Juan Sebastián Herrera Deportivo La Guaira Aktiv 112 / 109 40% 4 04.10.2028 -
Alejo Cruz Juventud Aktiv 129 / 117 40% 2 02.10.2028 -
Diego García Danubio Aktiv 128 / 123 40% 1 29.09.2028 -
Franco Nicola Liverpool Montevideo Aktiv 117 / 123 40% 2 28.09.2028 -
Federico Bisanz Atlanta Aktiv 120 / 112 40% 2 28.09.2028 -
Emiliano Saliadarre Miramar Misiones Aktiv 116 / 108 40% 1 26.09.2028 -
José Balza Deportivo Tachira Aktiv 112 / 106 40% 1 26.09.2028 -
Yackson Rivas Deportivo La Guaira Aktiv 115 / 105 40% 3 24.09.2028 -
Walter Núñez Montevideo City Torque Aktiv 122 / 119 40% 1 24.09.2028 -
Bruno Leyes Godoy Cruz Aktiv 133 / 132 40% 3 22.09.2028 -
Jerónimo Porto Lapegüe San Telmo Aktiv 110 / 114 40% 2 22.09.2028 -
Nahuel Curcio Colón Aktiv 118 / 123 40% 4 21.09.2028 -
Luis Olivera Defensores Unidos Aktiv 112 / 116 40% 1 21.09.2028 -
Esteban Obregón Montevideo City Torque Aktiv 127 / 128 40% 1 19.09.2028 -
Sebastián Jaurena San Martín SJ Aktiv 118 / 119 40% 1 19.09.2028 -
Matías Ramírez Godoy Cruz Aktiv 119 / 120 40% 1 17.09.2028 -
Yuber Quiñónes Patriotas Aktiv 129 / 126 40% 2 16.09.2028 -
Allan Saint-Maximin Charlotte Football Club Aktiv 142 / 145 40% 1 16.09.2028 -
Camilo Machado Madryn Aktiv 107 / 100 40% 1 15.09.2028 -
César Magallan Estudiantes de Merida Aktiv 103 / 111 40% 4 09.09.2028 -
Luis Palacios Once Caldas Aktiv 120 / 114 40% 1 09.09.2028 -
Ángelo Lucena Carabobo Aktiv 108 / 102 40% 2 08.09.2028 -
Carlos Cantillo Jaguares Aktiv 119 / 112 40% 2 06.09.2028 -
Facundo Taborda Racing Aktiv 117 / 107 40% 1 04.09.2028 -
Franco Vedoya Central Norte Aktiv 119 / 117 40% 1 27.08.2028 -
José Barreto Quilmes Aktiv 107 / 107 40% 2 25.08.2028 -
Nicolás Retamar Ferro Carril Oeste Aktiv 119 / 114 40% 2 23.08.2028 -
Bernard Sulemana Ashanti Gold Aktiv 122 / 126 40% 1 23.08.2028 -
Lautaro Calderón Asante Kotoko Aktiv 101 / 99 40% 1 23.08.2028 -
Adrián Sánchez Belgrano Aktiv 117 / 125 40% 1 17.08.2028 -
Job Ochieng Real Sociedad Aktiv 105 / 110 40% 2 16.08.2028 -
Antonio Salado Ospitaletto Aktiv 102 / 118 40% 1 15.08.2028 -
Cristian Gutiérrez Las Palmas Aktiv 133 / 140 40% 1 15.08.2028 -
Simone Mazzocchi Cosenza Aktiv 137 / 115 40% 1 12.08.2028 -
Alberto Solís Andorra Aktiv 107 / 112 40% 1 12.08.2028 -
Camillo Tavernelli Arezzo Aktiv 121 / 136 40% 1 12.08.2028 -
Ben Wiles Milton Keynes Dons Aktiv 134 / 113 40% 1 09.08.2028 -
Jack Taylor Doncaster Rovers Aktiv 137 / 145 40% 1 09.08.2028 -
Joe Powell Gillingham Aktiv 123 / 118 40% 1 09.08.2028 -
Robert Alarcón Juan Aurich Aktiv 72 / 88 62% 1 02.06.2028 -
Jean Pierre Vílchez Ayacucho Aktiv 91 / 91 30% 1 / 1m 08.03.2028 -
Fabián Palomino Ayacucho Verhandlung 98 / 101 30% 1 / 1m 08.03.2028 -
Antonio Napolitano Agropecuario Argentino Aktiv 122 / 116 40% 1 30.11.2027 -
Fernando Bersano Madryn Aktiv 128 / 120 40% 1 30.11.2027 -
Anthony da Costa Artigas Aktiv 71 / 88 40% 1 28.06.2027 -
Darlin Yongwa Norwich City Aktiv 136 / 112 40% 1 22.06.2027 -
Kristoffer Lund Birmingham Aktiv 139 / 139 40% 1 22.06.2027 -
Idris El Mizouni Leyton Orient Aktiv 105 / 114 40% 1 31.05.2027 -
Alen Vukaj Alcione Milano Aktiv 82 / 92 40% 1 30.05.2027 -
Lorenzo De Leo Renate Aktiv 86 / 115 40% 1 25.05.2027 -
Fletcher Holman Swindon Town Aktiv 76 / 97 40% 1 25.05.2027 -
Luke Baartman Ajax Cape Town Aktiv 97 / 98 40% 1 24.05.2027 -
Luka Andrade Montevideo City Torque Aktiv 96 / 110 40% 3 22.05.2027 -
Máximo Seggio Crawley Town Aktiv 77 / 103 40% 2 21.05.2027 -
Sergey Guzyuk Strogino Aktiv 57 / 53 40% 1 20.05.2027 -
Maren Kefas Plateau United Aktiv 82 / 88 40% 1 20.05.2027 -
Borna Knezović Casarano Aktiv 111 / 100 40% 3 19.05.2027 -
Nazif Inoussa Benfica Aktiv 64 / 74 40% 1 18.05.2027 -
Abubakar Garba Nasarawa United Aktiv 80 / 104 40% 2 17.05.2027 -
George Brown Sheffield Wednesday Aktiv 88 / 119 40% 2 15.05.2027 -
Alagie Wally Veres Aktiv 78 / 98 40% 1 13.05.2027 -
Ousseynou Seck Randers Aktiv 119 / 112 40% 2 12.05.2027 -
Ben Ahmed Kohili Paradou Aktiv 101 / 122 40% 2 12.05.2027 -
Naledi Hlongwane Wa All Stars Aktiv 88 / 93 40% 2 10.05.2027 -
Dani Ángel Sampdoria Aktiv 91 / 92 40% 1 08.05.2027 -
Chineme Chinonso Ikorodu City Aktiv 97 / 103 40% 3 05.05.2027 -
Ahmed Khaled Paralimni Aktiv 100 / 109 40% 2 04.05.2027 -
Nathan Mbala FC Metz Aktiv 84 / 110 40% 1 30.04.2027 -
José Mendes Sporting CP Aktiv 69 / 88 40% 1 29.04.2027 -
Ryan Oné Sheffield United Aktiv 123 / 112 40% 2 23.04.2027 -
Darlvin Yeboah Bechem United Aktiv 78 / 88 40% 2 23.04.2027 -
Godbless Ayeke AS Bakaridjan Aktiv 85 / 81 40% 1 22.04.2027 -
Joseph George Aigle Royal de Moungo Aktiv 97 / 81 40% 3 19.04.2027 -
Víctor Guzmán Sporting CP Aktiv 79 / 106 40% 1 16.04.2027 -
Will Lankshear Middlesbrough Aktiv 119 / 115 40% 1 11.04.2027 -
Mohammed Kamara CFR Cluj Aktiv 135 / 113 40% 1 29.11.2026 -
Álex Centelles Levski Aktiv 109 / 137 40% 1 28.11.2026 -
Assad Al Hamlawi Universitatea Craiova Aktiv 105 / 132 40% 2 26.11.2026 -
Germán Berterame Inter Miami CF Aktiv 124 / 118 40% 1 24.11.2026 -
Erik Botheim Viking Aktiv 144 / 139 40% 3 23.11.2026 -
Jorge Gonzalez Viitorul Aktiv 79 / 103 40% 1 22.11.2026 -
Luis Caicedo Spartak 1918 Aktiv 87 / 88 40% 1 19.11.2026 -
Radek Šiler Podbrezova Aktiv 108 / 113 40% 2 17.11.2026 -
Wessam Abou Ali Columbus Crew Aktiv 127 / 138 40% 1 16.11.2026 -
Tio Cipot NK Maribor Aktiv 122 / 111 40% 1 16.11.2026 -
Samuel Kalu Botev Plovdiv Aktiv 120 / 107 40% 2 15.11.2026 -
Iván Angulo Orlando City Aktiv 114 / 121 40% 1 15.11.2026 -
Alexandru Cicâldău Universitatea Craiova Aktiv 114 / 122 40% 1 15.11.2026 -
Wandile Duba ASO Chlef Aktiv 93 / 112 40% 1 15.11.2026 -
Kévin Denkey FC Cincinnati Aktiv 126 / 116 40% 1 14.11.2026 -
Facundo Mura Inter Miami CF Aktiv 133 / 112 40% 1 12.11.2026 -
David Miculescu FCSB Aktiv 123 / 115 40% 1 12.11.2026 -
Renat Garayev AZAL Aktiv 106 / 97 40% 1 11.11.2026 -
Armstrong Oko-Flex Levski Aktiv 131 / 117 40% 1 11.11.2026 -
Jens Petter Hauge Bodo/Glimt Aktiv 146 / 150 40% 1 10.11.2026 -
Lucas Souto Defensa y Justicia Aktiv 115 / 118 40% 2 09.11.2026 -
Daniel Armstrong Dinamo Bucharest Aktiv 112 / 111 40% 1 08.11.2026 -
Luciano Inverso Betis Aktiv 118 / 124 40% 2 04.11.2026 -
Jaime Carreño Spartak Trnava Aktiv 100 / 93 40% 1 04.11.2026 -
Emil Breivik Molde Aktiv 119 / 128 40% 1 03.11.2026 -
Jáder Valencia Deportes Tolima Aktiv 117 / 104 40% 1 30.10.2026 -
Sebastian Mailat Botosani Aktiv 127 / 123 40% 1 27.10.2026 -
Thomas Carrique Andorra Aktiv 119 / 128 40% 1 27.10.2026 -
Ole-Didrik Blomberg Bodo/Glimt Aktiv 140 / 127 40% 1 26.10.2026 -
Erick Marcus Ludogorets Aktiv 139 / 138 40% 1 25.10.2026 -
Junior Brítez Saburtalo Aktiv 109 / 111 40% 1 25.10.2026 -
Genaro Rossi San Martín SJ Aktiv 104 / 105 40% 2 24.10.2026 -
Alberto Benítez Villalba Torpedo Kutaisi Aktiv 114 / 86 40% 1 24.10.2026 -
Lucas Palavecino Banfield Aktiv 106 / 109 40% 1 23.10.2026 -
Marcelo Torres Gimnasia La Plata Aktiv 127 / 128 40% 2 18.10.2026 -
Jeriel De Santis Caracas Aktiv 102 / 109 40% 1 17.10.2026 -
Gaspar Duarte Rosario Central Aktiv 111 / 116 40% 1 17.10.2026 -
Santiago Luján Huracán Aktiv 119 / 120 40% 1 14.10.2026 -
Lechi Sadulaev Akhmat Grozny Aktiv 108 / 131 40% 1 14.10.2026 -
Mohamed Konaté Akhmat Grozny Aktiv 118 / 116 40% 1 10.10.2026 -
Alejandro Rincon Llaneros Aktiv 107 / 99 40% 1 04.10.2026 -
Csanád Vilmos Dénes Debrecen Aktiv 94 / 117 40% 1 04.10.2026 -
Pedro Silva Torrejón Gimnasia La Plata Aktiv 108 / 110 40% 1 03.10.2026 -
Egas Cacintura Akhmat Grozny Aktiv 125 / 121 40% 1 01.10.2026 -
Tyrhys Dolan Espanyol Aktiv 150 / 153 40% 1 27.09.2026 -
Bautista Barros Schelotto Gimnasia La Plata Aktiv 104 / 110 40% 1 27.09.2026 -
Yeferson Rincon Atletico Venezuela Aktiv 95 / 105 40% 1 27.09.2026 -
Lucas González Nacional Aktiv 117 / 103 40% 2 23.09.2026 -
Junior Paredes Trujillanos Aktiv 88 / 102 40% 3 23.09.2026 -
Agustín Bianciotti Metropolitanos Aktiv 103 / 97 40% 3 20.09.2026 -
Franco Torres Gimnasia La Plata Aktiv 127 / 123 40% 1 20.09.2026 -
Paul Samson Plateau United Aktiv 97 / 104 40% 1 20.09.2026 -
Angelo Marchese Tigre Aktiv 111 / 101 40% 1 19.09.2026 -
Mauricio Cardillo San Lorenzo Aktiv 111 / 126 40% 1 19.09.2026 -
Ronaldo Peña Deportivo Lara Aktiv 108 / 109 40% 1 17.09.2026 -
Santiago Herrera Estudiantes de Caracas Aktiv 82 / 90 40% 2 14.09.2026 -
Thiago Ponce Rosario Central Aktiv 87 / 112 40% 1 09.09.2026 -
Umar Ada Nasarawa United Aktiv 75 / 91 40% 1 09.09.2026 -
Daniel Karlsbakk Sarpsborg 08 Aktiv 134 / 130 40% 2 08.09.2026 -
Ekain Orobengoa Real Sociedad Aktiv 79 / 95 40% 1 08.09.2026 -
Ignacio Giacinti Patronato Aktiv 93 / 97 40% 1 07.09.2026 -
Lautaro Cano Banfield Aktiv 97 / 103 40% 1 07.09.2026 -
Tiago Benzi Belgrano Aktiv 101 / 91 40% 1 06.09.2026 -
Rodrigo Pollero Deportivo Tachira Aktiv 98 / 101 40% 1 05.09.2026 -
Brandon Hanlan Doncaster Rovers Aktiv 89 / 93 40% 1 29.08.2026 -
Agustín Obregón River Plate Aktiv 116 / 111 40% 1 28.08.2026 -
Alexis Steimbach Gimnasia La Plata Aktiv 109 / 115 40% 1 28.08.2026 -
Adalberto Peñaranda Deportivo Tachira Aktiv 115 / 104 40% 1 25.08.2026 -
Sergio Riffo Kolkheti Aktiv 76 / 89 40% 1 25.08.2026 -
Fabricio Corbalán Gimnasia La Plata Aktiv 109 / 118 40% 1 24.08.2026 -
Juan Camilo Pérez Carabobo Aktiv 113 / 107 40% 1 24.08.2026 -
Matías Pellegrini Vélez Aktiv 109 / 114 40% 1 23.08.2026 -
Santiago González Sporting Cristal Aktiv 120 / 110 40% 1 18.08.2026 -
Valentín Fascendini Talleres Aktiv 118 / 112 40% 1 16.08.2026 -
Jonathan Cañete Portuguesa Aktiv 116 / 117 40% 1 14.08.2026 -
Ferland Mendy Real Madrid Aktiv 127 / 149 40% 1 08.08.2026 -
Salomon Ramirez Atletico Venezuela Aktiv 97 / 102 40% 1 08.08.2026 -
Jokin Gabilondo Zaragoza Aktiv 93 / 114 40% 1 07.08.2026 -
José Pérez Portuguesa Aktiv 84 / 94 40% 1 06.08.2026 -
José Barragán Zamora Aktiv 106 / 98 40% 1 05.08.2026 -
Tobías Ganduglia Independiente Rivadavia Aktiv 80 / 100 40% 1 05.08.2026 -
Ramiro Ruiz Rodríguez Atlético Tucumán Aktiv 118 / 121 40% 1 04.08.2026 -
Leonel Bucca Independiente Rivadavia Aktiv 105 / 116 40% 1 02.08.2026 -
Jon Guruzeta Eibar Aktiv 121 / 105 40% 1 02.08.2026 -